sensor_id;sensor_type;location;lat;lon;timestamp;pressure;altitude;pressure_sealevel;temperature;humidity
61682;BME280;47577;43.610;25.010;2023-01-25T00:02:05;102220.06;;;1.60;79.99
61682;BME280;47577;43.610;25.010;2023-01-25T00:04:31;102223.72;;;1.65;80.07
61682;BME280;47577;43.610;25.010;2023-01-25T00:06:57;102225.41;;;1.63;80.21
61682;BME280;47577;43.610;25.010;2023-01-25T00:09:24;102225.31;;;1.60;79.88
61682;BME280;47577;43.610;25.010;2023-01-25T00:11:52;102232.25;;;1.58;79.81
61682;BME280;47577;43.610;25.010;2023-01-25T00:14:20;102219.03;;;1.55;80.45
61682;BME280;47577;43.610;25.010;2023-01-25T00:16:46;102219.03;;;1.55;79.49
61682;BME280;47577;43.610;25.010;2023-01-25T00:19:11;102222.53;;;1.55;80.03
61682;BME280;47577;43.610;25.010;2023-01-25T00:21:37;102229.63;;;1.58;80.47
61682;BME280;47577;43.610;25.010;2023-01-25T00:24:04;102212.06;;;1.55;79.65
61682;BME280;47577;43.610;25.010;2023-01-25T00:26:33;102220.84;;;1.56;79.56
61682;BME280;47577;43.610;25.010;2023-01-25T00:29:00;102219.09;;;1.56;79.87
61682;BME280;47577;43.610;25.010;2023-01-25T00:36:44;102214.66;;;1.55;79.20
61682;BME280;47577;43.610;25.010;2023-01-25T00:39:12;102207.63;;;1.53;79.57
61682;BME280;47577;43.610;25.010;2023-01-25T00:41:38;102208.34;;;1.49;79.62
61682;BME280;47577;43.610;25.010;2023-01-25T00:44:05;102212.81;;;1.51;80.79
61682;BME280;47577;43.610;25.010;2023-01-25T00:46:31;102218.09;;;1.53;80.77
61682;BME280;47577;43.610;25.010;2023-01-25T00:48:57;102209.31;;;1.52;80.46
61682;BME280;47577;43.610;25.010;2023-01-25T00:51:23;102216.38;;;1.53;80.18
61682;BME280;47577;43.610;25.010;2023-01-25T00:53:49;102203.84;;;1.44;80.16
61682;BME280;47577;43.610;25.010;2023-01-25T00:56:15;102205.72;;;1.49;80.62
61682;BME280;47577;43.610;25.010;2023-01-25T00:58:41;102214.66;;;1.55;80.40
61682;BME280;47577;43.610;25.010;2023-01-25T01:01:07;102188.22;;;1.48;80.49
61682;BME280;47577;43.610;25.010;2023-01-25T01:03:33;102202.56;;;1.59;80.23
61682;BME280;47577;43.610;25.010;2023-01-25T01:06:10;102206.91;;;1.58;79.75
61682;BME280;47577;43.610;25.010;2023-01-25T01:08:40;102199.03;;;1.58;79.74
61682;BME280;47577;43.610;25.010;2023-01-25T01:11:08;102199.84;;;1.56;79.97
61682;BME280;47577;43.610;25.010;2023-01-25T01:13:34;102192.72;;;1.52;79.81
61682;BME280;47577;43.610;25.010;2023-01-25T01:16:02;102194.66;;;1.57;79.99
61682;BME280;47577;43.610;25.010;2023-01-25T01:18:28;102199.03;;;1.58;80.15
61682;BME280;47577;43.610;25.010;2023-01-25T01:20:57;102183.88;;;1.48;79.86
61682;BME280;47577;43.610;25.010;2023-01-25T01:23:23;102185.72;;;1.52;80.67
61682;BME280;47577;43.610;25.010;2023-01-25T01:25:48;102183.06;;;1.51;80.04
61682;BME280;47577;43.610;25.010;2023-01-25T01:28:15;102189.31;;;1.54;80.50
61682;BME280;47577;43.610;25.010;2023-01-25T01:30:40;102185.63;;;1.48;80.23
61682;BME280;47577;43.610;25.010;2023-01-25T01:33:07;102173.94;;;1.38;80.21
61682;BME280;47577;43.610;25.010;2023-01-25T01:35:32;102170.16;;;1.30;80.56
61682;BME280;47577;43.610;25.010;2023-01-25T01:37:58;102179.25;;;1.39;81.11
61682;BME280;47577;43.610;25.010;2023-01-25T01:40:24;102172.16;;;1.37;80.25
61682;BME280;47577;43.610;25.010;2023-01-25T01:43:05;102181.16;;;1.45;80.56
61682;BME280;47577;43.610;25.010;2023-01-25T01:50:50;102173.88;;;1.36;80.58
61682;BME280;47577;43.610;25.010;2023-01-25T01:53:18;102161.66;;;1.37;80.59
61682;BME280;47577;43.610;25.010;2023-01-25T01:55:44;102168.81;;;1.42;81.20
61682;BME280;47577;43.610;25.010;2023-01-25T01:58:10;102168.09;;;1.46;81.08
61682;BME280;47577;43.610;25.010;2023-01-25T02:00:38;102167.31;;;1.51;80.62
61682;BME280;47577;43.610;25.010;2023-01-25T02:03:06;102162.75;;;1.43;80.30
61682;BME280;47577;43.610;25.010;2023-01-25T02:05:50;102148.66;;;1.40;81.20
61682;BME280;47577;43.610;25.010;2023-01-25T02:08:20;102165.31;;;1.42;80.58
61682;BME280;47577;43.610;25.010;2023-01-25T02:10:47;102165.38;;;1.43;81.34
61682;BME280;47577;43.610;25.010;2023-01-25T02:13:13;102175.06;;;1.46;80.97
61682;BME280;47577;43.610;25.010;2023-01-25T02:15:45;102167.00;;;1.40;81.34
61682;BME280;47577;43.610;25.010;2023-01-25T02:18:11;102155.34;;;1.30;81.13
61682;BME280;47577;43.610;25.010;2023-01-25T02:20:46;102172.19;;;1.38;80.81
61682;BME280;47577;43.610;25.010;2023-01-25T02:25:49;102179.47;;;1.47;81.43
61682;BME280;47577;43.610;25.010;2023-01-25T02:28:25;102173.44;;;1.50;81.25
61682;BME280;47577;43.610;25.010;2023-01-25T02:30:52;102167.16;;;1.44;81.86
61682;BME280;47577;43.610;25.010;2023-01-25T02:33:18;102160.88;;;1.39;80.86
61682;BME280;47577;43.610;25.010;2023-01-25T02:35:49;102172.56;;;1.51;81.07
61682;BME280;47577;43.610;25.010;2023-01-25T02:38:19;102169.13;;;1.52;81.73
61682;BME280;47577;43.610;25.010;2023-01-25T02:40:56;102162.09;;;1.51;81.37
61682;BME280;47577;43.610;25.010;2023-01-25T02:43:23;102166.25;;;1.44;81.47
61682;BME280;47577;43.610;25.010;2023-01-25T02:45:58;102147.78;;;1.39;81.51
61682;BME280;47577;43.610;25.010;2023-01-25T02:48:25;102152.22;;;1.42;81.15
61682;BME280;47577;43.610;25.010;2023-01-25T02:50:50;102162.78;;;1.45;81.11
61682;BME280;47577;43.610;25.010;2023-01-25T02:53:16;102157.31;;;1.37;81.37
61682;BME280;47577;43.610;25.010;2023-01-25T02:55:42;102171.38;;;1.41;81.68
61682;BME280;47577;43.610;25.010;2023-01-25T02:58:07;102170.25;;;1.33;81.46
61682;BME280;47577;43.610;25.010;2023-01-25T03:00:33;102171.75;;;1.24;81.56
61682;BME280;47577;43.610;25.010;2023-01-25T03:02:58;102174.63;;;1.32;81.24
61682;BME280;47577;43.610;25.010;2023-01-25T03:05:24;102178.16;;;1.34;81.10
61682;BME280;47577;43.610;25.010;2023-01-25T03:07:50;102165.06;;;1.34;81.22
61682;BME280;47577;43.610;25.010;2023-01-25T03:10:16;102174.97;;;1.43;81.66
61682;BME280;47577;43.610;25.010;2023-01-25T03:12:42;102167.88;;;1.40;81.22
61682;BME280;47577;43.610;25.010;2023-01-25T03:15:08;102174.78;;;1.37;80.58
61682;BME280;47577;43.610;25.010;2023-01-25T03:17:33;102163.94;;;1.26;81.13
61682;BME280;47577;43.610;25.010;2023-01-25T03:19:59;102170.31;;;1.34;81.21
61682;BME280;47577;43.610;25.010;2023-01-25T03:22:24;102167.47;;;1.26;81.16
61682;BME280;47577;43.610;25.010;2023-01-25T03:24:50;102170.81;;;1.22;81.67
61682;BME280;47577;43.610;25.010;2023-01-25T03:27:16;102166.94;;;1.11;82.61
61682;BME280;47577;43.610;25.010;2023-01-25T03:29:44;102168.09;;;1.19;81.08
61682;BME280;47577;43.610;25.010;2023-01-25T03:32:10;102165.63;;;0.98;81.49
61682;BME280;47577;43.610;25.010;2023-01-25T03:34:36;102137.16;;;0.82;81.99
61682;BME280;47577;43.610;25.010;2023-01-25T03:37:02;102162.84;;;0.94;81.98
61682;BME280;47577;43.610;25.010;2023-01-25T03:39:28;102152.59;;;1.00;82.65
61682;BME280;47577;43.610;25.010;2023-01-25T03:41:53;102171.16;;;1.06;83.46
61682;BME280;47577;43.610;25.010;2023-01-25T03:44:19;102173.72;;;1.04;83.67
61682;BME280;47577;43.610;25.010;2023-01-25T03:46:44;102151.72;;;0.99;83.15
61682;BME280;47577;43.610;25.010;2023-01-25T03:49:10;102163.34;;;1.07;83.25
61682;BME280;47577;43.610;25.010;2023-01-25T03:51:36;102168.09;;;1.19;82.97
61682;BME280;47577;43.610;25.010;2023-01-25T03:54:02;102157.91;;;1.28;82.11
61682;BME280;47577;43.610;25.010;2023-01-25T03:56:30;102155.53;;;1.36;81.91
61682;BME280;47577;43.610;25.010;2023-01-25T03:58:55;102167.22;;;1.46;81.38
61682;BME280;47577;43.610;25.010;2023-01-25T04:01:21;102164.72;;;1.51;81.36
61682;BME280;47577;43.610;25.010;2023-01-25T04:03:47;102162.06;;;1.49;81.37
61682;BME280;47577;43.610;25.010;2023-01-25T04:06:12;102163.00;;;1.51;81.27
61682;BME280;47577;43.610;25.010;2023-01-25T04:08:38;102165.38;;;1.43;81.52
61682;BME280;47577;43.610;25.010;2023-01-25T04:11:08;102168.13;;;1.48;81.55
61682;BME280;47577;43.610;25.010;2023-01-25T04:13:35;102170.97;;;1.54;81.39
61682;BME280;47577;43.610;25.010;2023-01-25T04:16:02;102160.47;;;1.54;81.63
61682;BME280;47577;43.610;25.010;2023-01-25T04:18:27;102170.25;;;1.60;81.30
61682;BME280;47577;43.610;25.010;2023-01-25T04:20:54;102172.34;;;1.70;80.85
61682;BME280;47577;43.610;25.010;2023-01-25T04:23:20;102169.88;;;1.76;80.68
61682;BME280;47577;43.610;25.010;2023-01-25T04:25:54;102181.31;;;1.78;80.90
61682;BME280;47577;43.610;25.010;2023-01-25T04:28:19;102173.41;;;1.77;80.88
61682;BME280;47577;43.610;25.010;2023-01-25T04:30:45;102178.66;;;1.77;80.72
61682;BME280;47577;43.610;25.010;2023-01-25T04:33:11;102174.19;;;1.74;80.84
61682;BME280;47577;43.610;25.010;2023-01-25T04:35:37;102189.19;;;1.78;80.99
61682;BME280;47577;43.610;25.010;2023-01-25T04:38:02;102185.66;;;1.78;80.91
61682;BME280;47577;43.610;25.010;2023-01-25T04:40:28;102182.09;;;1.76;81.25
61682;BME280;47577;43.610;25.010;2023-01-25T04:42:55;102180.47;;;1.79;81.55
61682;BME280;47577;43.610;25.010;2023-01-25T04:45:21;102182.25;;;1.80;81.69
61682;BME280;47577;43.610;25.010;2023-01-25T04:47:48;102179.59;;;1.79;81.74
61682;BME280;47577;43.610;25.010;2023-01-25T04:50:14;102171.38;;;1.68;81.23
61682;BME280;47577;43.610;25.010;2023-01-25T04:52:39;102173.25;;;1.72;81.33
61682;BME280;47577;43.610;25.010;2023-01-25T04:55:05;102174.16;;;1.73;82.21
61682;BME280;47577;43.610;25.010;2023-01-25T04:57:31;102173.25;;;1.72;81.96
61682;BME280;47577;43.610;25.010;2023-01-25T04:59:56;102178.47;;;1.71;81.89
61682;BME280;47577;43.610;25.010;2023-01-25T05:02:22;102184.78;;;1.77;81.66
61682;BME280;47577;43.610;25.010;2023-01-25T05:04:48;102176.91;;;1.77;81.35
61682;BME280;47577;43.610;25.010;2023-01-25T05:07:13;102189.69;;;1.67;82.60
61682;BME280;47577;43.610;25.010;2023-01-25T05:09:39;102186.91;;;1.62;82.42
61682;BME280;47577;43.610;25.010;2023-01-25T05:12:04;102188.44;;;1.55;82.68
61682;BME280;47577;43.610;25.010;2023-01-25T05:14:36;102187.56;;;1.55;82.90
61682;BME280;47577;43.610;25.010;2023-01-25T05:17:03;102190.16;;;1.53;83.25
61682;BME280;47577;43.610;25.010;2023-01-25T05:19:30;102191.06;;;1.55;83.13
61682;BME280;47577;43.610;25.010;2023-01-25T05:21:55;102198.66;;;1.46;83.38
61682;BME280;47577;43.610;25.010;2023-01-25T05:24:28;102190.75;;;1.44;83.59
61682;BME280;47577;43.610;25.010;2023-01-25T05:26:55;102185.72;;;1.52;83.23
61682;BME280;47577;43.610;25.010;2023-01-25T05:29:35;102182.38;;;1.56;83.34
61682;BME280;47577;43.610;25.010;2023-01-25T05:32:13;102188.50;;;1.57;83.29
61682;BME280;47577;43.610;25.010;2023-01-25T05:34:42;102191.19;;;1.58;83.30
61682;BME280;47577;43.610;25.010;2023-01-25T05:37:10;102186.59;;;1.51;83.52
61682;BME280;47577;43.610;25.010;2023-01-25T05:39:36;102193.84;;;1.33;83.91
61682;BME280;47577;43.610;25.010;2023-01-25T05:42:03;102187.19;;;1.15;84.85
61682;BME280;47577;43.610;25.010;2023-01-25T05:44:33;102198.00;;;1.26;84.64
61682;BME280;47577;43.610;25.010;2023-01-25T05:47:02;102195.69;;;1.35;84.25
61682;BME280;47577;43.610;25.010;2023-01-25T05:49:28;102190.69;;;1.43;84.70
61682;BME280;47577;43.610;25.010;2023-01-25T05:51:54;102187.31;;;1.47;84.37
61682;BME280;47577;43.610;25.010;2023-01-25T05:54:19;102183.88;;;1.48;84.19
61682;BME280;47577;43.610;25.010;2023-01-25T05:56:48;102196.28;;;1.54;84.05
61682;BME280;47577;43.610;25.010;2023-01-25T05:59:14;102194.34;;;1.48;84.09
61682;BME280;47577;43.610;25.010;2023-01-25T06:01:41;102192.56;;;1.47;84.29
61682;BME280;47577;43.610;25.010;2023-01-25T06:04:11;102198.78;;;1.49;84.40
61682;BME280;47577;43.610;25.010;2023-01-25T06:06:37;102201.47;;;1.52;84.34
61682;BME280;47577;43.610;25.010;2023-01-25T06:09:03;102201.28;;;1.46;84.50
61682;BME280;47577;43.610;25.010;2023-01-25T06:11:28;102199.50;;;1.45;84.41
61682;BME280;47577;43.610;25.010;2023-01-25T06:13:54;102208.44;;;1.52;84.25
61682;BME280;47577;43.610;25.010;2023-01-25T06:16:20;102212.66;;;1.46;83.92
61682;BME280;47577;43.610;25.010;2023-01-25T06:18:45;102206.47;;;1.44;84.19
61682;BME280;47577;43.610;25.010;2023-01-25T06:21:12;102207.97;;;1.36;84.29
61682;BME280;47577;43.610;25.010;2023-01-25T06:23:38;102216.88;;;1.41;83.96
61682;BME280;47577;43.610;25.010;2023-01-25T06:26:07;102210.59;;;1.36;83.75
61682;BME280;47577;43.610;25.010;2023-01-25T06:28:35;102216.75;;;1.38;83.85
61682;BME280;47577;43.610;25.010;2023-01-25T06:31:11;102210.81;;;1.44;83.80
61682;BME280;47577;43.610;25.010;2023-01-25T06:33:37;102196.56;;;1.36;83.69
61682;BME280;47577;43.610;25.010;2023-01-25T06:36:04;102209.22;;;1.48;83.44
61682;BME280;47577;43.610;25.010;2023-01-25T06:38:30;102196.03;;;1.46;82.96
61682;BME280;47577;43.610;25.010;2023-01-25T06:41:01;102194.56;;;1.54;82.57
61682;BME280;47577;43.610;25.010;2023-01-25T06:43:27;102183.06;;;1.51;82.05
61682;BME280;47577;43.610;25.010;2023-01-25T06:45:57;102206.28;;;1.66;81.71
61682;BME280;47577;43.610;25.010;2023-01-25T06:48:23;102205.47;;;1.68;81.48
61682;BME280;47577;43.610;25.010;2023-01-25T06:51:15;102209.09;;;1.72;80.75
61682;BME280;47577;43.610;25.010;2023-01-25T06:53:43;102212.66;;;1.74;81.01
61682;BME280;47577;43.610;25.010;2023-01-25T06:56:12;102210.13;;;1.77;80.02
61682;BME280;47577;43.610;25.010;2023-01-25T06:58:38;102204.88;;;1.77;79.86
61682;BME280;47577;43.610;25.010;2023-01-25T07:01:06;102194.16;;;1.69;79.75
61682;BME280;47577;43.610;25.010;2023-01-25T07:03:33;102209.31;;;1.79;79.57
61682;BME280;47577;43.610;25.010;2023-01-25T07:05:59;102210.34;;;1.85;79.99
61682;BME280;47577;43.610;25.010;2023-01-25T07:08:26;102203.16;;;1.77;79.96
61682;BME280;47577;43.610;25.010;2023-01-25T07:10:54;102218.81;;;1.76;79.81
61682;BME280;47577;43.610;25.010;2023-01-25T07:13:19;102212.91;;;1.81;79.36
61682;BME280;47577;43.610;25.010;2023-01-25T07:15:55;102212.03;;;1.82;79.22
61682;BME280;47577;43.610;25.010;2023-01-25T07:18:21;102210.88;;;1.73;78.13
61682;BME280;47577;43.610;25.010;2023-01-25T07:20:46;102218.81;;;1.76;79.02
61682;BME280;47577;43.610;25.010;2023-01-25T07:23:12;102199.50;;;1.72;78.91
61682;BME280;47577;43.610;25.010;2023-01-25T07:25:45;102206.53;;;1.75;79.05
61682;BME280;47577;43.610;25.010;2023-01-25T07:28:11;102212.03;;;1.82;78.29
61682;BME280;47577;43.610;25.010;2023-01-25T07:30:37;102215.47;;;1.80;77.68
61682;BME280;47577;43.610;25.010;2023-01-25T07:33:02;102216.22;;;1.76;77.53
61682;BME280;47577;43.610;25.010;2023-01-25T07:35:28;102215.13;;;1.69;77.54
61682;BME280;47577;43.610;25.010;2023-01-25T07:37:54;102208.00;;;1.65;77.25
61682;BME280;47577;43.610;25.010;2023-01-25T07:40:20;102227.34;;;1.69;76.83
61682;BME280;47577;43.610;25.010;2023-01-25T07:42:50;102208.28;;;1.74;76.67
61682;BME280;47577;43.610;25.010;2023-01-25T07:45:16;102224.97;;;1.76;76.54
61682;BME280;47577;43.610;25.010;2023-01-25T07:47:41;102218.78;;;1.74;76.94
61682;BME280;47577;43.610;25.010;2023-01-25T07:50:08;102214.94;;;1.63;75.30
61682;BME280;47577;43.610;25.010;2023-01-25T07:52:35;102213.19;;;1.63;76.28
61682;BME280;47577;43.610;25.010;2023-01-25T07:55:00;102220.38;;;1.69;75.70
61682;BME280;47577;43.610;25.010;2023-01-25T07:57:26;102214.94;;;1.63;75.26
61682;BME280;47577;43.610;25.010;2023-01-25T07:59:53;102223.94;;;1.71;75.35
61682;BME280;47577;43.610;25.010;2023-01-25T08:02:19;102230.16;;;1.75;76.10
61682;BME280;47577;43.610;25.010;2023-01-25T08:04:44;102216.06;;;1.71;73.98
61682;BME280;47577;43.610;25.010;2023-01-25T08:07:12;102222.00;;;1.66;74.16
61682;BME280;47577;43.610;25.010;2023-01-25T08:09:39;102212.59;;;1.72;74.71
61682;BME280;47577;43.610;25.010;2023-01-25T08:12:06;102212.25;;;1.61;74.21
61682;BME280;47577;43.610;25.010;2023-01-25T08:14:32;102217.00;;;1.73;74.40
61682;BME280;47577;43.610;25.010;2023-01-25T08:16:58;102211.75;;;1.73;73.88
61682;BME280;47577;43.610;25.010;2023-01-25T08:19:23;102218.63;;;1.70;73.72
61682;BME280;47577;43.610;25.010;2023-01-25T08:21:50;102201.19;;;1.70;72.67
61682;BME280;47577;43.610;25.010;2023-01-25T08:24:16;102204.59;;;1.68;71.86
61682;BME280;47577;43.610;25.010;2023-01-25T08:26:41;102199.41;;;1.69;72.72
61682;BME280;47577;43.610;25.010;2023-01-25T08:29:09;102205.63;;;1.73;72.05
61682;BME280;47577;43.610;25.010;2023-01-25T08:31:35;102193.44;;;1.75;72.25
61682;BME280;47577;43.610;25.010;2023-01-25T08:34:01;102201.53;;;1.82;72.19
61682;BME280;47577;43.610;25.010;2023-01-25T08:36:28;102198.63;;;1.73;71.69
61682;BME280;47577;43.610;25.010;2023-01-25T08:38:59;102198.69;;;1.75;72.92
61682;BME280;47577;43.610;25.010;2023-01-25T08:41:26;102195.53;;;1.85;72.49
61682;BME280;47577;43.610;25.010;2023-01-25T08:43:53;102198.88;;;1.81;72.58
61682;BME280;47577;43.610;25.010;2023-01-25T08:46:20;102188.94;;;1.71;72.54
61682;BME280;47577;43.610;25.010;2023-01-25T08:48:46;102200.28;;;1.70;72.86
61682;BME280;47577;43.610;25.010;2023-01-25T08:51:13;102197.69;;;1.71;72.24
61682;BME280;47577;43.610;25.010;2023-01-25T08:53:39;102196.00;;;1.73;72.53
61682;BME280;47577;43.610;25.010;2023-01-25T08:56:07;102207.81;;;1.59;72.91
61682;BME280;47577;43.610;25.010;2023-01-25T08:58:34;102198.00;;;1.53;73.12
61682;BME280;47577;43.610;25.010;2023-01-25T09:01:05;102200.13;;;1.65;73.15
61682;BME280;47577;43.610;25.010;2023-01-25T09:03:43;102191.44;;;1.66;72.75
61682;BME280;47577;43.610;25.010;2023-01-25T09:06:10;102192.66;;;1.77;71.72
61682;BME280;47577;43.610;25.010;2023-01-25T09:08:37;102191.16;;;1.86;71.40
61682;BME280;47577;43.610;25.010;2023-01-25T09:11:08;102190.22;;;1.83;72.00
61682;BME280;47577;43.610;25.010;2023-01-25T09:13:34;102186.00;;;1.89;72.30
61682;BME280;47577;43.610;25.010;2023-01-25T09:16:04;102172.94;;;1.90;71.42
61682;BME280;47577;43.610;25.010;2023-01-25T09:18:31;102181.00;;;1.96;70.30
61682;BME280;47577;43.610;25.010;2023-01-25T09:20:57;102182.59;;;1.91;70.94
61682;BME280;47577;43.610;25.010;2023-01-25T09:23:23;102175.69;;;1.95;70.90
61682;BME280;47577;43.610;25.010;2023-01-25T09:26:10;102174.00;;;1.97;69.90
61682;BME280;47577;43.610;25.010;2023-01-25T09:28:36;102169.78;;;2.02;70.46
61682;BME280;47577;43.610;25.010;2023-01-25T09:31:05;102164.28;;;1.94;70.75
61682;BME280;47577;43.610;25.010;2023-01-25T09:33:33;102180.84;;;1.92;71.00
61682;BME280;47577;43.610;25.010;2023-01-25T09:36:00;102166.09;;;1.95;70.90
61682;BME280;47577;43.610;25.010;2023-01-25T09:38:27;102168.13;;;2.06;70.51
61682;BME280;47577;43.610;25.010;2023-01-25T09:46:33;102156.59;;;2.00;70.61
61682;BME280;47577;43.610;25.010;2023-01-25T09:54:44;102157.25;;;1.92;70.68
61682;BME280;47577;43.610;25.010;2023-01-25T09:57:20;102147.66;;;1.94;70.71
61682;BME280;47577;43.610;25.010;2023-01-25T09:59:50;102154.94;;;2.03;71.00
61682;BME280;47577;43.610;25.010;2023-01-25T10:05:04;102150.91;;;2.14;70.30
61682;BME280;47577;43.610;25.010;2023-01-25T10:10:42;102145.78;;;2.20;70.28
61682;BME280;47577;43.610;25.010;2023-01-25T10:13:11;102142.69;;;2.03;70.39
61682;BME280;47577;43.610;25.010;2023-01-25T10:15:51;102122.69;;;2.07;70.50
61682;BME280;47577;43.610;25.010;2023-01-25T10:18:48;102123.50;;;2.06;69.41
61682;BME280;47577;43.610;25.010;2023-01-25T10:21:22;102119.22;;;2.08;70.00
61682;BME280;47577;43.610;25.010;2023-01-25T10:26:55;102094.41;;;1.96;69.62
61682;BME280;47577;43.610;25.010;2023-01-25T10:29:30;102105.22;;;2.09;69.76
61682;BME280;47577;43.610;25.010;2023-01-25T10:32:28;102105.28;;;2.10;69.55
61682;BME280;47577;43.610;25.010;2023-01-25T10:35:18;102091.84;;;1.98;69.56
61682;BME280;47577;43.610;25.010;2023-01-25T10:37:47;102091.00;;;2.00;68.84
61682;BME280;47577;43.610;25.010;2023-01-25T10:40:23;102086.03;;;2.10;69.42
61682;BME280;47577;43.610;25.010;2023-01-25T10:45:16;102086.44;;;2.24;68.22
61682;BME280;47577;43.610;25.010;2023-01-25T10:48:05;102079.38;;;2.23;68.82
61682;BME280;47577;43.610;25.010;2023-01-25T10:56:43;102060.94;;;2.19;67.82
61682;BME280;47577;43.610;25.010;2023-01-25T10:58:47;102055.69;;;2.19;69.41
61682;BME280;47577;43.610;25.010;2023-01-25T11:01:28;102057.56;;;2.24;68.88
61682;BME280;47577;43.610;25.010;2023-01-25T11:03:54;102039.13;;;2.22;68.78
61682;BME280;47577;43.610;25.010;2023-01-25T11:06:47;102044.44;;;2.24;68.30
61682;BME280;47577;43.610;25.010;2023-01-25T11:11:57;102042.84;;;2.30;69.05
61682;BME280;47577;43.610;25.010;2023-01-25T11:14:25;102033.97;;;2.25;69.59
61682;BME280;47577;43.610;25.010;2023-01-25T11:16:53;102018.94;;;2.19;69.19
61682;BME280;47577;43.610;25.010;2023-01-25T11:19:24;102031.25;;;2.22;69.45
61682;BME280;47577;43.610;25.010;2023-01-25T11:21:52;102019.84;;;2.22;69.88
61682;BME280;47577;43.610;25.010;2023-01-25T11:24:18;102011.97;;;2.22;69.45
61682;BME280;47577;43.610;25.010;2023-01-25T11:26:44;101999.84;;;2.25;69.14
61682;BME280;47577;43.610;25.010;2023-01-25T11:29:18;102003.44;;;2.29;69.30
61682;BME280;47577;43.610;25.010;2023-01-25T11:32:02;101992.09;;;2.31;69.51
61682;BME280;47577;43.610;25.010;2023-01-25T11:34:33;101991.31;;;2.34;69.76
61682;BME280;47577;43.610;25.010;2023-01-25T11:37:15;101994.84;;;2.36;69.66
61682;BME280;47577;43.610;25.010;2023-01-25T11:39:52;101989.47;;;2.31;69.61
61682;BME280;47577;43.610;25.010;2023-01-25T11:42:40;101993.72;;;2.26;70.18
61682;BME280;47577;43.610;25.010;2023-01-25T11:50:59;101980.88;;;2.37;70.66
61682;BME280;47577;43.610;25.010;2023-01-25T11:56:13;101974.94;;;2.44;70.27
61682;BME280;47577;43.610;25.010;2023-01-25T12:06:58;101966.31;;;2.50;70.58
61682;BME280;47577;43.610;25.010;2023-01-25T12:09:36;101960.91;;;2.44;69.61
61682;BME280;47577;43.610;25.010;2023-01-25T12:21:02;101953.63;;;2.32;70.40
61682;BME280;47577;43.610;25.010;2023-01-25T12:29:15;101960.44;;;2.24;70.74
61682;BME280;47577;43.610;25.010;2023-01-25T12:32:16;101950.84;;;2.26;71.18
61682;BME280;47577;43.610;25.010;2023-01-25T12:34:50;101942.84;;;2.21;69.54
61682;BME280;47577;43.610;25.010;2023-01-25T12:37:19;101935.97;;;2.26;70.20
61682;BME280;47577;43.610;25.010;2023-01-25T12:40:14;101937.25;;;2.42;70.05
61682;BME280;47577;43.610;25.010;2023-01-25T12:42:46;101936.50;;;2.46;70.09
61682;BME280;47577;43.610;25.010;2023-01-25T12:45:18;101935.47;;;2.41;69.14
61682;BME280;47577;43.610;25.010;2023-01-25T12:48:09;101920.38;;;2.32;69.09
61682;BME280;47577;43.610;25.010;2023-01-25T12:50:53;101937.28;;;2.44;69.65
61682;BME280;47577;43.610;25.010;2023-01-25T12:53:38;101942.34;;;2.36;69.86
61682;BME280;47577;43.610;25.010;2023-01-25T12:56:08;101932.88;;;2.43;68.93
61682;BME280;47577;43.610;25.010;2023-01-25T12:58:53;101934.63;;;2.42;68.83
61682;BME280;47577;43.610;25.010;2023-01-25T13:08:02;101927.84;;;2.52;70.35
61682;BME280;47577;43.610;25.010;2023-01-25T13:10:37;101924.31;;;2.50;70.57
61682;BME280;47577;43.610;25.010;2023-01-25T13:13:23;101923.38;;;2.46;70.34
61682;BME280;47577;43.610;25.010;2023-01-25T13:15:50;101922.22;;;2.35;71.22
61682;BME280;47577;43.610;25.010;2023-01-25T13:20:57;101922.19;;;2.33;71.46
61682;BME280;47577;43.610;25.010;2023-01-25T13:23:33;101927.50;;;2.38;70.71
61682;BME280;47577;43.610;25.010;2023-01-25T13:32:11;101927.34;;;2.30;70.79
61682;BME280;47577;43.610;25.010;2023-01-25T13:39:59;101928.97;;;2.27;71.13
61682;BME280;47577;43.610;25.010;2023-01-25T13:42:28;101919.28;;;2.23;70.51
61682;BME280;47577;43.610;25.010;2023-01-25T13:45:15;101904.19;;;2.14;70.01
61682;BME280;47577;43.610;25.010;2023-01-25T13:48:20;101919.00;;;2.12;70.71
61682;BME280;47577;43.610;25.010;2023-01-25T13:50:57;101920.47;;;2.00;71.00
61682;BME280;47577;43.610;25.010;2023-01-25T13:53:25;101903.13;;;2.07;70.84
61682;BME280;47577;43.610;25.010;2023-01-25T13:55:55;101902.38;;;2.11;69.88
61682;BME280;47577;43.610;25.010;2023-01-25T13:58:27;101907.78;;;2.17;70.73
61682;BME280;47577;43.610;25.010;2023-01-25T14:01:22;101909.44;;;2.14;70.73
61682;BME280;47577;43.610;25.010;2023-01-25T14:03:49;101901.53;;;2.12;70.62
61682;BME280;47577;43.610;25.010;2023-01-25T14:06:18;101895.13;;;2.01;70.65
61682;BME280;47577;43.610;25.010;2023-01-25T14:08:45;101898.84;;;2.09;71.15
61682;BME280;47577;43.610;25.010;2023-01-25T14:11:32;101897.16;;;2.13;70.91
61682;BME280;47577;43.610;25.010;2023-01-25T14:14:20;101884.81;;;2.09;71.01
61682;BME280;47577;43.610;25.010;2023-01-25T14:19:42;101902.38;;;2.11;70.74
61682;BME280;47577;43.610;25.010;2023-01-25T14:22:40;101903.38;;;2.16;71.57
61682;BME280;47577;43.610;25.010;2023-01-25T14:25:19;101898.03;;;2.13;70.70
61682;BME280;47577;43.610;25.010;2023-01-25T14:28:02;101889.94;;;2.03;71.04
61682;BME280;47577;43.610;25.010;2023-01-25T14:30:32;101889.88;;;2.01;71.69
61682;BME280;47577;43.610;25.010;2023-01-25T14:33:17;101891.72;;;2.05;71.31
61682;BME280;47577;43.610;25.010;2023-01-25T14:35:46;101897.03;;;2.08;71.42
61682;BME280;47577;43.610;25.010;2023-01-25T14:38:32;101902.44;;;2.14;71.61
61682;BME280;47577;43.610;25.010;2023-01-25T14:43:50;101888.84;;;1.96;71.19
61682;BME280;47577;43.610;25.010;2023-01-25T14:48:49;101903.00;;;2.01;70.67